sensor_id;sensor_type;location;lat;lon;timestamp;temperature;humidity
9219;DHT22;4644;48.858;9.184;2023-03-12T00:01:16;-0.50;99.90
9219;DHT22;4644;48.858;9.184;2023-03-12T00:03:43;-0.50;99.90
9219;DHT22;4644;48.858;9.184;2023-03-12T00:06:10;-0.60;99.90
9219;DHT22;4644;48.858;9.184;2023-03-12T00:08:38;-0.60;99.90
9219;DHT22;4644;48.858;9.184;2023-03-12T00:11:06;-0.70;99.90
9219;DHT22;4644;48.858;9.184;2023-03-12T00:13:36;-0.60;99.90
9219;DHT22;4644;48.858;9.184;2023-03-12T00:16:07;-0.70;99.90
9219;DHT22;4644;48.858;9.184;2023-03-12T00:18:35;-0.80;99.90
9219;DHT22;4644;48.858;9.184;2023-03-12T00:21:02;-0.80;99.90
9219;DHT22;4644;48.858;9.184;2023-03-12T00:23:29;-0.80;99.90
9219;DHT22;4644;48.858;9.184;2023-03-12T00:26:01;-0.80;99.90
9219;DHT22;4644;48.858;9.184;2023-03-12T00:28:28;-0.80;99.90
9219;DHT22;4644;48.858;9.184;2023-03-12T00:30:56;-0.80;99.90
9219;DHT22;4644;48.858;9.184;2023-03-12T00:33:24;-0.80;99.90
9219;DHT22;4644;48.858;9.184;2023-03-12T00:35:52;-0.90;99.90
9219;DHT22;4644;48.858;9.184;2023-03-12T00:38:19;-0.80;99.90
9219;DHT22;4644;48.858;9.184;2023-03-12T00:40:46;-0.80;99.90
9219;DHT22;4644;48.858;9.184;2023-03-12T00:43:13;-0.90;99.90
9219;DHT22;4644;48.858;9.184;2023-03-12T00:45:40;-0.90;99.90
9219;DHT22;4644;48.858;9.184;2023-03-12T00:48:09;-0.90;99.90
9219;DHT22;4644;48.858;9.184;2023-03-12T00:50:36;-0.90;99.90
9219;DHT22;4644;48.858;9.184;2023-03-12T00:53:03;-0.90;99.90
9219;DHT22;4644;48.858;9.184;2023-03-12T00:55:30;-0.90;99.90
9219;DHT22;4644;48.858;9.184;2023-03-12T00:57:57;-0.90;99.90
9219;DHT22;4644;48.858;9.184;2023-03-12T01:00:24;-0.90;99.90
9219;DHT22;4644;48.858;9.184;2023-03-12T01:02:51;-0.80;99.90
9219;DHT22;4644;48.858;9.184;2023-03-12T01:05:20;-0.90;99.90
9219;DHT22;4644;48.858;9.184;2023-03-12T01:07:48;-0.80;99.90
9219;DHT22;4644;48.858;9.184;2023-03-12T01:10:17;-0.80;99.90
9219;DHT22;4644;48.858;9.184;2023-03-12T01:12:45;-0.80;99.90
9219;DHT22;4644;48.858;9.184;2023-03-12T01:15:13;-0.80;99.90
9219;DHT22;4644;48.858;9.184;2023-03-12T01:17:41;-0.80;99.90
9219;DHT22;4644;48.858;9.184;2023-03-12T01:20:09;-0.80;99.90
9219;DHT22;4644;48.858;9.184;2023-03-12T01:22:38;-0.80;99.90
9219;DHT22;4644;48.858;9.184;2023-03-12T01:25:06;-0.80;99.90
9219;DHT22;4644;48.858;9.184;2023-03-12T01:27:33;-0.70;99.90
9219;DHT22;4644;48.858;9.184;2023-03-12T01:30:00;-0.70;99.90
9219;DHT22;4644;48.858;9.184;2023-03-12T01:32:27;-0.70;99.90
9219;DHT22;4644;48.858;9.184;2023-03-12T01:34:54;-0.70;99.90
9219;DHT22;4644;48.858;9.184;2023-03-12T01:37:23;-0.70;99.90
9219;DHT22;4644;48.858;9.184;2023-03-12T01:39:51;-0.60;99.90
9219;DHT22;4644;48.858;9.184;2023-03-12T01:42:18;-0.60;99.90
9219;DHT22;4644;48.858;9.184;2023-03-12T01:44:50;-0.60;99.90
9219;DHT22;4644;48.858;9.184;2023-03-12T01:47:17;-0.50;99.90
9219;DHT22;4644;48.858;9.184;2023-03-12T01:49:44;-0.50;99.90
9219;DHT22;4644;48.858;9.184;2023-03-12T01:52:13;-0.50;99.90
9219;DHT22;4644;48.858;9.184;2023-03-12T01:54:43;-0.50;99.90
9219;DHT22;4644;48.858;9.184;2023-03-12T01:57:14;-0.40;99.90
9219;DHT22;4644;48.858;9.184;2023-03-12T01:59:45;-0.40;99.90
9219;DHT22;4644;48.858;9.184;2023-03-12T02:02:14;-0.40;99.90
9219;DHT22;4644;48.858;9.184;2023-03-12T02:04:44;-0.30;99.90
9219;DHT22;4644;48.858;9.184;2023-03-12T02:07:14;-0.30;99.90
9219;DHT22;4644;48.858;9.184;2023-03-12T02:09:43;-0.40;99.90
9219;DHT22;4644;48.858;9.184;2023-03-12T02:12:12;-0.40;99.90
9219;DHT22;4644;48.858;9.184;2023-03-12T02:14:40;-0.40;99.90
9219;DHT22;4644;48.858;9.184;2023-03-12T02:17:08;-0.30;99.90
9219;DHT22;4644;48.858;9.184;2023-03-12T02:19:41;-0.30;99.90
9219;DHT22;4644;48.858;9.184;2023-03-12T02:22:10;-0.30;99.90
9219;DHT22;4644;48.858;9.184;2023-03-12T02:24:42;-0.30;99.90
9219;DHT22;4644;48.858;9.184;2023-03-12T02:27:11;-0.30;99.90
9219;DHT22;4644;48.858;9.184;2023-03-12T02:29:42;-0.40;99.90
9219;DHT22;4644;48.858;9.184;2023-03-12T02:32:16;-0.40;99.90
9219;DHT22;4644;48.858;9.184;2023-03-12T02:34:43;-0.40;99.90
9219;DHT22;4644;48.858;9.184;2023-03-12T02:37:12;-0.40;99.90
9219;DHT22;4644;48.858;9.184;2023-03-12T02:39:40;-0.40;99.90
9219;DHT22;4644;48.858;9.184;2023-03-12T02:42:08;-0.30;99.90
9219;DHT22;4644;48.858;9.184;2023-03-12T02:44:36;-0.40;99.90
9219;DHT22;4644;48.858;9.184;2023-03-12T02:47:04;-0.40;99.90
9219;DHT22;4644;48.858;9.184;2023-03-12T02:49:33;-0.40;99.90
9219;DHT22;4644;48.858;9.184;2023-03-12T02:52:00;-0.40;99.90
9219;DHT22;4644;48.858;9.184;2023-03-12T02:54:28;-0.30;99.90
9219;DHT22;4644;48.858;9.184;2023-03-12T02:56:55;-0.30;99.90
9219;DHT22;4644;48.858;9.184;2023-03-12T02:59:22;-0.30;99.90
9219;DHT22;4644;48.858;9.184;2023-03-12T03:01:53;-0.30;99.90
9219;DHT22;4644;48.858;9.184;2023-03-12T03:04:21;-0.30;99.90
9219;DHT22;4644;48.858;9.184;2023-03-12T03:06:48;-0.30;99.90
9219;DHT22;4644;48.858;9.184;2023-03-12T03:09:15;-0.30;99.90
9219;DHT22;4644;48.858;9.184;2023-03-12T03:11:42;-0.40;99.90
9219;DHT22;4644;48.858;9.184;2023-03-12T03:14:09;-0.40;99.90
9219;DHT22;4644;48.858;9.184;2023-03-12T03:16:36;-0.40;99.90
9219;DHT22;4644;48.858;9.184;2023-03-12T03:19:05;-0.30;99.90
9219;DHT22;4644;48.858;9.184;2023-03-12T03:21:32;-0.30;99.90
9219;DHT22;4644;48.858;9.184;2023-03-12T03:23:59;-0.40;99.90
9219;DHT22;4644;48.858;9.184;2023-03-12T03:26:26;-0.40;99.90
9219;DHT22;4644;48.858;9.184;2023-03-12T03:28:53;-0.30;99.90
9219;DHT22;4644;48.858;9.184;2023-03-12T03:31:20;-0.40;99.90
9219;DHT22;4644;48.858;9.184;2023-03-12T03:33:48;-0.40;99.90
9219;DHT22;4644;48.858;9.184;2023-03-12T03:36:16;-0.50;99.90
9219;DHT22;4644;48.858;9.184;2023-03-12T03:38:43;-0.50;99.90
9219;DHT22;4644;48.858;9.184;2023-03-12T03:41:14;-0.40;99.90
9219;DHT22;4644;48.858;9.184;2023-03-12T03:43:41;-0.40;99.90
9219;DHT22;4644;48.858;9.184;2023-03-12T03:46:10;-0.30;99.90
9219;DHT22;4644;48.858;9.184;2023-03-12T03:48:38;-0.30;99.90
9219;DHT22;4644;48.858;9.184;2023-03-12T03:51:06;-0.20;99.90
9219;DHT22;4644;48.858;9.184;2023-03-12T03:53:35;-0.20;99.90
9219;DHT22;4644;48.858;9.184;2023-03-12T03:56:05;-0.20;99.90
9219;DHT22;4644;48.858;9.184;2023-03-12T03:58:32;-0.10;99.90
9219;DHT22;4644;48.858;9.184;2023-03-12T04:00:59;-0.10;99.90
9219;DHT22;4644;48.858;9.184;2023-03-12T04:03:26;-0.10;99.90
9219;DHT22;4644;48.858;9.184;2023-03-12T04:05:54;0.00;99.90
9219;DHT22;4644;48.858;9.184;2023-03-12T04:08:21;0.00;99.90
9219;DHT22;4644;48.858;9.184;2023-03-12T04:10:50;0.00;99.90
9219;DHT22;4644;48.858;9.184;2023-03-12T04:13:17;0.10;99.90
9219;DHT22;4644;48.858;9.184;2023-03-12T04:15:47;0.10;99.90
9219;DHT22;4644;48.858;9.184;2023-03-12T04:18:15;0.10;99.90
9219;DHT22;4644;48.858;9.184;2023-03-12T04:20:43;0.10;99.90
9219;DHT22;4644;48.858;9.184;2023-03-12T04:23:10;0.10;99.90
9219;DHT22;4644;48.858;9.184;2023-03-12T04:25:38;0.20;99.90
9219;DHT22;4644;48.858;9.184;2023-03-12T04:28:07;0.20;99.90
9219;DHT22;4644;48.858;9.184;2023-03-12T04:30:34;0.20;99.90
9219;DHT22;4644;48.858;9.184;2023-03-12T04:33:03;0.20;99.90
9219;DHT22;4644;48.858;9.184;2023-03-12T04:35:30;0.20;99.90
9219;DHT22;4644;48.858;9.184;2023-03-12T04:37:57;0.20;99.90
9219;DHT22;4644;48.858;9.184;2023-03-12T04:40:23;0.30;99.90
9219;DHT22;4644;48.858;9.184;2023-03-12T04:42:50;0.30;99.90
9219;DHT22;4644;48.858;9.184;2023-03-12T04:45:19;0.40;99.90
9219;DHT22;4644;48.858;9.184;2023-03-12T04:47:46;0.40;99.90
9219;DHT22;4644;48.858;9.184;2023-03-12T04:50:13;0.50;99.90
9219;DHT22;4644;48.858;9.184;2023-03-12T04:52:40;0.50;99.90
9219;DHT22;4644;48.858;9.184;2023-03-12T04:55:08;0.60;99.90
9219;DHT22;4644;48.858;9.184;2023-03-12T04:57:35;0.60;99.90
9219;DHT22;4644;48.858;9.184;2023-03-12T05:00:04;0.60;99.90
9219;DHT22;4644;48.858;9.184;2023-03-12T05:02:37;0.50;99.90
9219;DHT22;4644;48.858;9.184;2023-03-12T05:05:04;0.60;99.90
9219;DHT22;4644;48.858;9.184;2023-03-12T05:07:32;0.60;99.90
9219;DHT22;4644;48.858;9.184;2023-03-12T05:09:59;0.60;99.90
9219;DHT22;4644;48.858;9.184;2023-03-12T05:12:26;0.60;99.90
9219;DHT22;4644;48.858;9.184;2023-03-12T05:14:53;0.70;99.90
9219;DHT22;4644;48.858;9.184;2023-03-12T05:17:20;0.70;99.90
9219;DHT22;4644;48.858;9.184;2023-03-12T05:19:48;0.80;99.90
9219;DHT22;4644;48.858;9.184;2023-03-12T05:22:16;0.80;99.90
9219;DHT22;4644;48.858;9.184;2023-03-12T05:24:43;0.80;99.90
9219;DHT22;4644;48.858;9.184;2023-03-12T05:27:10;0.90;99.90
9219;DHT22;4644;48.858;9.184;2023-03-12T05:29:37;0.80;99.90
9219;DHT22;4644;48.858;9.184;2023-03-12T05:32:05;0.80;99.90
9219;DHT22;4644;48.858;9.184;2023-03-12T05:34:33;0.90;99.90
9219;DHT22;4644;48.858;9.184;2023-03-12T05:37:02;0.90;99.90
9219;DHT22;4644;48.858;9.184;2023-03-12T05:39:29;1.00;99.90
9219;DHT22;4644;48.858;9.184;2023-03-12T05:41:56;1.00;99.90
9219;DHT22;4644;48.858;9.184;2023-03-12T05:44:24;1.00;99.90
9219;DHT22;4644;48.858;9.184;2023-03-12T05:46:52;1.00;99.90
9219;DHT22;4644;48.858;9.184;2023-03-12T05:49:19;1.00;99.90
9219;DHT22;4644;48.858;9.184;2023-03-12T05:51:47;1.00;99.90
9219;DHT22;4644;48.858;9.184;2023-03-12T05:54:17;1.00;99.90
9219;DHT22;4644;48.858;9.184;2023-03-12T05:56:44;1.00;99.90
9219;DHT22;4644;48.858;9.184;2023-03-12T05:59:11;1.10;99.90
9219;DHT22;4644;48.858;9.184;2023-03-12T06:01:39;1.10;99.90
9219;DHT22;4644;48.858;9.184;2023-03-12T06:04:07;1.10;99.90
9219;DHT22;4644;48.858;9.184;2023-03-12T06:06:35;1.00;99.90
9219;DHT22;4644;48.858;9.184;2023-03-12T06:09:03;1.00;99.90
9219;DHT22;4644;48.858;9.184;2023-03-12T06:11:32;1.00;99.90
9219;DHT22;4644;48.858;9.184;2023-03-12T06:13:59;1.00;99.90
9219;DHT22;4644;48.858;9.184;2023-03-12T06:16:27;1.10;99.90
9219;DHT22;4644;48.858;9.184;2023-03-12T06:18:55;1.00;99.90
9219;DHT22;4644;48.858;9.184;2023-03-12T06:21:24;1.10;99.90
9219;DHT22;4644;48.858;9.184;2023-03-12T06:23:52;1.00;99.90
9219;DHT22;4644;48.858;9.184;2023-03-12T06:26:20;1.00;99.90
9219;DHT22;4644;48.858;9.184;2023-03-12T06:28:50;1.00;99.90
9219;DHT22;4644;48.858;9.184;2023-03-12T06:31:18;1.00;99.90
9219;DHT22;4644;48.858;9.184;2023-03-12T06:33:45;1.00;99.90
9219;DHT22;4644;48.858;9.184;2023-03-12T06:36:12;1.10;99.90
9219;DHT22;4644;48.858;9.184;2023-03-12T06:38:40;1.00;99.90
9219;DHT22;4644;48.858;9.184;2023-03-12T06:41:09;1.00;99.90
9219;DHT22;4644;48.858;9.184;2023-03-12T06:43:37;1.10;99.90
9219;DHT22;4644;48.858;9.184;2023-03-12T06:46:07;1.10;99.90
9219;DHT22;4644;48.858;9.184;2023-03-12T06:48:35;1.10;99.90
9219;DHT22;4644;48.858;9.184;2023-03-12T06:51:06;1.10;99.90
9219;DHT22;4644;48.858;9.184;2023-03-12T06:53:33;1.10;99.90
9219;DHT22;4644;48.858;9.184;2023-03-12T06:56:00;1.20;99.90
9219;DHT22;4644;48.858;9.184;2023-03-12T06:58:28;1.20;99.90
9219;DHT22;4644;48.858;9.184;2023-03-12T07:00:56;1.20;99.90
9219;DHT22;4644;48.858;9.184;2023-03-12T07:03:24;1.30;99.90
9219;DHT22;4644;48.858;9.184;2023-03-12T07:05:51;1.30;99.90
9219;DHT22;4644;48.858;9.184;2023-03-12T07:08:21;1.30;99.90
9219;DHT22;4644;48.858;9.184;2023-03-12T07:10:48;1.20;99.90
9219;DHT22;4644;48.858;9.184;2023-03-12T07:13:15;1.10;99.90
9219;DHT22;4644;48.858;9.184;2023-03-12T07:15:42;1.10;99.90
9219;DHT22;4644;48.858;9.184;2023-03-12T07:18:11;1.10;99.90
9219;DHT22;4644;48.858;9.184;2023-03-12T07:20:42;1.10;99.90
9219;DHT22;4644;48.858;9.184;2023-03-12T07:23:09;1.10;99.90
9219;DHT22;4644;48.858;9.184;2023-03-12T07:25:37;1.10;99.90
9219;DHT22;4644;48.858;9.184;2023-03-12T07:28:04;1.10;99.90
9219;DHT22;4644;48.858;9.184;2023-03-12T07:30:31;1.10;99.90
9219;DHT22;4644;48.858;9.184;2023-03-12T07:32:59;1.20;99.90
9219;DHT22;4644;48.858;9.184;2023-03-12T07:35:26;1.20;99.90
9219;DHT22;4644;48.858;9.184;2023-03-12T07:37:54;1.20;99.90
9219;DHT22;4644;48.858;9.184;2023-03-12T07:40:21;1.30;99.90
9219;DHT22;4644;48.858;9.184;2023-03-12T07:42:49;1.40;99.90
9219;DHT22;4644;48.858;9.184;2023-03-12T07:45:16;1.40;99.90
9219;DHT22;4644;48.858;9.184;2023-03-12T07:47:44;1.40;99.90
9219;DHT22;4644;48.858;9.184;2023-03-12T07:50:15;1.50;99.90
9219;DHT22;4644;48.858;9.184;2023-03-12T07:52:42;1.60;99.90
9219;DHT22;4644;48.858;9.184;2023-03-12T07:55:11;1.70;99.90
9219;DHT22;4644;48.858;9.184;2023-03-12T07:57:38;1.80;99.90
9219;DHT22;4644;48.858;9.184;2023-03-12T08:00:06;1.80;99.90
9219;DHT22;4644;48.858;9.184;2023-03-12T08:02:35;1.80;99.90
9219;DHT22;4644;48.858;9.184;2023-03-12T08:05:02;1.90;99.90
9219;DHT22;4644;48.858;9.184;2023-03-12T08:07:30;2.00;99.90
9219;DHT22;4644;48.858;9.184;2023-03-12T08:09:59;2.00;99.90
9219;DHT22;4644;48.858;9.184;2023-03-12T08:12:28;2.00;99.90
9219;DHT22;4644;48.858;9.184;2023-03-12T08:14:55;2.10;99.90
9219;DHT22;4644;48.858;9.184;2023-03-12T08:17:22;2.10;99.90
9219;DHT22;4644;48.858;9.184;2023-03-12T08:19:49;2.20;99.90
9219;DHT22;4644;48.858;9.184;2023-03-12T08:22:17;2.30;99.90
9219;DHT22;4644;48.858;9.184;2023-03-12T08:24:44;2.40;99.90
9219;DHT22;4644;48.858;9.184;2023-03-12T08:27:11;2.40;99.90
9219;DHT22;4644;48.858;9.184;2023-03-12T08:29:40;2.40;99.90
9219;DHT22;4644;48.858;9.184;2023-03-12T08:32:08;2.50;99.90
9219;DHT22;4644;48.858;9.184;2023-03-12T08:34:35;2.50;99.90
9219;DHT22;4644;48.858;9.184;2023-03-12T08:37:02;2.40;99.90
9219;DHT22;4644;48.858;9.184;2023-03-12T08:39:29;2.30;99.90
9219;DHT22;4644;48.858;9.184;2023-03-12T08:41:56;2.30;99.90
9219;DHT22;4644;48.858;9.184;2023-03-12T08:44:24;2.40;99.90
9219;DHT22;4644;48.858;9.184;2023-03-12T08:46:52;2.30;99.90
9219;DHT22;4644;48.858;9.184;2023-03-12T08:49:20;2.40;99.90
9219;DHT22;4644;48.858;9.184;2023-03-12T08:51:47;2.50;99.90
9219;DHT22;4644;48.858;9.184;2023-03-12T08:54:16;2.50;99.90
9219;DHT22;4644;48.858;9.184;2023-03-12T08:56:43;2.70;99.90
9219;DHT22;4644;48.858;9.184;2023-03-12T08:59:12;2.70;99.90
9219;DHT22;4644;48.858;9.184;2023-03-12T09:01:40;2.90;99.90
9219;DHT22;4644;48.858;9.184;2023-03-12T09:04:08;3.00;99.90
9219;DHT22;4644;48.858;9.184;2023-03-12T09:06:35;3.20;99.90
9219;DHT22;4644;48.858;9.184;2023-03-12T09:09:03;3.20;99.90
9219;DHT22;4644;48.858;9.184;2023-03-12T09:11:31;3.30;99.90
9219;DHT22;4644;48.858;9.184;2023-03-12T09:13:58;3.30;99.90
9219;DHT22;4644;48.858;9.184;2023-03-12T09:16:25;3.30;99.90
9219;DHT22;4644;48.858;9.184;2023-03-12T09:18:53;3.40;99.90
9219;DHT22;4644;48.858;9.184;2023-03-12T09:21:22;3.60;99.90
9219;DHT22;4644;48.858;9.184;2023-03-12T09:23:49;3.60;99.90
9219;DHT22;4644;48.858;9.184;2023-03-12T09:26:16;3.70;99.90
9219;DHT22;4644;48.858;9.184;2023-03-12T09:28:43;3.80;99.90
9219;DHT22;4644;48.858;9.184;2023-03-12T09:31:10;3.90;99.90
9219;DHT22;4644;48.858;9.184;2023-03-12T09:33:37;3.90;99.90
9219;DHT22;4644;48.858;9.184;2023-03-12T09:36:05;4.00;99.90
9219;DHT22;4644;48.858;9.184;2023-03-12T09:38:34;4.10;99.90
9219;DHT22;4644;48.858;9.184;2023-03-12T09:41:03;4.20;99.90
9219;DHT22;4644;48.858;9.184;2023-03-12T09:43:35;4.30;99.90
9219;DHT22;4644;48.858;9.184;2023-03-12T09:46:04;4.20;99.90
9219;DHT22;4644;48.858;9.184;2023-03-12T09:48:35;4.10;99.90
9219;DHT22;4644;48.858;9.184;2023-03-12T09:51:06;4.20;99.90
9219;DHT22;4644;48.858;9.184;2023-03-12T09:53:39;4.30;99.90
9219;DHT22;4644;48.858;9.184;2023-03-12T09:56:14;4.50;99.90
9219;DHT22;4644;48.858;9.184;2023-03-12T09:58:43;4.50;99.90
9219;DHT22;4644;48.858;9.184;2023-03-12T10:01:27;4.70;99.90
9219;DHT22;4644;48.858;9.184;2023-03-12T10:04:33;4.80;99.90
9219;DHT22;4644;48.858;9.184;2023-03-12T10:07:06;5.10;99.90
9219;DHT22;4644;48.858;9.184;2023-03-12T10:12:37;5.50;99.90
9219;DHT22;4644;48.858;9.184;2023-03-12T10:15:16;5.80;99.90
9219;DHT22;4644;48.858;9.184;2023-03-12T10:17:55;6.00;99.90
9219;DHT22;4644;48.858;9.184;2023-03-12T10:20:45;6.10;99.90
9219;DHT22;4644;48.858;9.184;2023-03-12T10:23:21;6.20;99.90
9219;DHT22;4644;48.858;9.184;2023-03-12T10:25:54;6.30;99.90
9219;DHT22;4644;48.858;9.184;2023-03-12T10:28:29;6.30;99.90
9219;DHT22;4644;48.858;9.184;2023-03-12T10:31:00;6.50;99.90
9219;DHT22;4644;48.858;9.184;2023-03-12T10:33:38;6.70;99.90
9219;DHT22;4644;48.858;9.184;2023-03-12T10:36:16;6.90;99.90
9219;DHT22;4644;48.858;9.184;2023-03-12T10:38:44;7.00;99.90
9219;DHT22;4644;48.858;9.184;2023-03-12T10:41:17;7.10;99.90
9219;DHT22;4644;48.858;9.184;2023-03-12T10:43:44;7.10;99.90
9219;DHT22;4644;48.858;9.184;2023-03-12T10:49:32;7.10;99.90
9219;DHT22;4644;48.858;9.184;2023-03-12T10:52:02;7.10;99.90
9219;DHT22;4644;48.858;9.184;2023-03-12T10:54:31;7.10;99.90
9219;DHT22;4644;48.858;9.184;2023-03-12T10:57:00;7.10;99.90
9219;DHT22;4644;48.858;9.184;2023-03-12T10:59:30;7.10;99.90
9219;DHT22;4644;48.858;9.184;2023-03-12T11:01:59;7.10;99.90
9219;DHT22;4644;48.858;9.184;2023-03-12T11:04:27;7.10;99.90
9219;DHT22;4644;48.858;9.184;2023-03-12T11:07:05;7.30;99.90
9219;DHT22;4644;48.858;9.184;2023-03-12T11:09:34;7.40;99.90
9219;DHT22;4644;48.858;9.184;2023-03-12T11:12:22;7.60;99.90
9219;DHT22;4644;48.858;9.184;2023-03-12T11:14:49;7.80;99.90
9219;DHT22;4644;48.858;9.184;2023-03-12T11:17:22;8.10;99.90
9219;DHT22;4644;48.858;9.184;2023-03-12T11:19:50;8.40;99.90
9219;DHT22;4644;48.858;9.184;2023-03-12T11:22:29;8.70;99.90
9219;DHT22;4644;48.858;9.184;2023-03-12T11:24:58;9.00;99.90
9219;DHT22;4644;48.858;9.184;2023-03-12T11:27:39;9.30;99.90
9219;DHT22;4644;48.858;9.184;2023-03-12T11:30:11;9.40;99.90
9219;DHT22;4644;48.858;9.184;2023-03-12T11:32:42;9.50;99.90
9219;DHT22;4644;48.858;9.184;2023-03-12T11:35:10;9.70;99.90
9219;DHT22;4644;48.858;9.184;2023-03-12T11:37:47;9.90;99.90
9219;DHT22;4644;48.858;9.184;2023-03-12T11:40:28;10.10;99.90
9219;DHT22;4644;48.858;9.184;2023-03-12T11:43:07;10.50;99.90
9219;DHT22;4644;48.858;9.184;2023-03-12T11:45:45;10.80;99.90
9219;DHT22;4644;48.858;9.184;2023-03-12T11:48:19;11.00;99.90
9219;DHT22;4644;48.858;9.184;2023-03-12T11:50:57;11.10;99.90
9219;DHT22;4644;48.858;9.184;2023-03-12T11:53:41;11.10;99.90
9219;DHT22;4644;48.858;9.184;2023-03-12T11:56:19;11.00;99.90
9219;DHT22;4644;48.858;9.184;2023-03-12T11:59:01;10.90;99.90
9219;DHT22;4644;48.858;9.184;2023-03-12T12:01:39;10.80;99.90
9219;DHT22;4644;48.858;9.184;2023-03-12T12:07:16;10.50;99.90
9219;DHT22;4644;48.858;9.184;2023-03-12T12:09:52;10.60;99.90
9219;DHT22;4644;48.858;9.184;2023-03-12T12:12:37;10.60;99.90
9219;DHT22;4644;48.858;9.184;2023-03-12T12:15:17;10.70;99.90
9219;DHT22;4644;48.858;9.184;2023-03-12T12:17:55;10.80;99.90
9219;DHT22;4644;48.858;9.184;2023-03-12T12:20:30;10.90;99.90
9219;DHT22;4644;48.858;9.184;2023-03-12T12:23:14;11.00;99.90
9219;DHT22;4644;48.858;9.184;2023-03-12T12:26:05;11.20;99.90
9219;DHT22;4644;48.858;9.184;2023-03-12T12:28:48;11.40;99.90
9219;DHT22;4644;48.858;9.184;2023-03-12T12:31:29;11.50;99.90
9219;DHT22;4644;48.858;9.184;2023-03-12T12:34:24;11.60;99.90
9219;DHT22;4644;48.858;9.184;2023-03-12T12:36:57;11.70;99.90
9219;DHT22;4644;48.858;9.184;2023-03-12T12:39:33;11.80;99.90
9219;DHT22;4644;48.858;9.184;2023-03-12T12:42:03;11.80;99.90
9219;DHT22;4644;48.858;9.184;2023-03-12T12:44:34;11.70;99.90
9219;DHT22;4644;48.858;9.184;2023-03-12T12:47:05;11.70;99.90
9219;DHT22;4644;48.858;9.184;2023-03-12T12:49:40;11.60;99.90
9219;DHT22;4644;48.858;9.184;2023-03-12T12:52:12;11.50;99.90
9219;DHT22;4644;48.858;9.184;2023-03-12T12:54:47;11.50;99.90
9219;DHT22;4644;48.858;9.184;2023-03-12T12:57:21;11.40;99.90
9219;DHT22;4644;48.858;9.184;2023-03-12T13:00:01;11.30;99.90
9219;DHT22;4644;48.858;9.184;2023-03-12T13:02:35;11.40;99.90
9219;DHT22;4644;48.858;9.184;2023-03-12T13:05:18;11.40;99.90
9219;DHT22;4644;48.858;9.184;2023-03-12T13:07:45;11.20;99.90
9219;DHT22;4644;48.858;9.184;2023-03-12T13:10:37;11.10;99.90
9219;DHT22;4644;48.858;9.184;2023-03-12T13:13:09;11.00;99.90
9219;DHT22;4644;48.858;9.184;2023-03-12T13:15:38;10.80;99.90
9219;DHT22;4644;48.858;9.184;2023-03-12T13:18:20;10.60;99.90
9219;DHT22;4644;48.858;9.184;2023-03-12T13:21:05;10.50;99.90
9219;DHT22;4644;48.858;9.184;2023-03-12T13:23:36;10.40;99.90
9219;DHT22;4644;48.858;9.184;2023-03-12T13:26:07;10.40;99.90
9219;DHT22;4644;48.858;9.184;2023-03-12T13:29:10;10.40;99.90
9219;DHT22;4644;48.858;9.184;2023-03-12T13:31:39;10.50;99.90
9219;DHT22;4644;48.858;9.184;2023-03-12T13:34:30;10.70;99.90
9219;DHT22;4644;48.858;9.184;2023-03-12T13:36:59;10.90;99.90
9219;DHT22;4644;48.858;9.184;2023-03-12T13:39:29;11.00;99.90
9219;DHT22;4644;48.858;9.184;2023-03-12T13:41:57;11.00;99.90
9219;DHT22;4644;48.858;9.184;2023-03-12T13:44:31;11.10;99.90
9219;DHT22;4644;48.858;9.184;2023-03-12T13:47:04;11.20;99.90
9219;DHT22;4644;48.858;9.184;2023-03-12T13:49:39;11.30;99.90
9219;DHT22;4644;48.858;9.184;2023-03-12T13:52:23;11.40;99.90
9219;DHT22;4644;48.858;9.184;2023-03-12T13:54:58;11.50;99.90
9219;DHT22;4644;48.858;9.184;2023-03-12T13:57:33;11.60;99.90
9219;DHT22;4644;48.858;9.184;2023-03-12T14:00:03;11.60;99.90
9219;DHT22;4644;48.858;9.184;2023-03-12T14:02:34;11.70;99.90
9219;DHT22;4644;48.858;9.184;2023-03-12T14:05:05;11.70;99.90
9219;DHT22;4644;48.858;9.184;2023-03-12T14:07:56;11.70;99.90
9219;DHT22;4644;48.858;9.184;2023-03-12T14:10:29;11.60;99.90
9219;DHT22;4644;48.858;9.184;2023-03-12T14:13:06;11.50;99.90
9219;DHT22;4644;48.858;9.184;2023-03-12T14:15:43;11.40;99.90
9219;DHT22;4644;48.858;9.184;2023-03-12T14:18:17;11.30;99.90
9219;DHT22;4644;48.858;9.184;2023-03-12T14:20:52;11.10;99.90
9219;DHT22;4644;48.858;9.184;2023-03-12T14:23:20;11.00;99.90
9219;DHT22;4644;48.858;9.184;2023-03-12T14:25:48;10.90;99.90
9219;DHT22;4644;48.858;9.184;2023-03-12T14:28:19;10.70;99.90
9219;DHT22;4644;48.858;9.184;2023-03-12T14:30:50;10.70;99.90
9219;DHT22;4644;48.858;9.184;2023-03-12T14:33:20;10.70;99.90
9219;DHT22;4644;48.858;9.184;2023-03-12T14:35:53;10.60;99.90
9219;DHT22;4644;48.858;9.184;2023-03-12T14:38:25;10.60;99.90
9219;DHT22;4644;48.858;9.184;2023-03-12T14:41:00;10.70;99.90
9219;DHT22;4644;48.858;9.184;2023-03-12T14:43:30;10.80;99.90
9219;DHT22;4644;48.858;9.184;2023-03-12T14:46:00;10.80;99.90
9219;DHT22;4644;48.858;9.184;2023-03-12T14:48:29;10.80;99.90
9219;DHT22;4644;48.858;9.184;2023-03-12T14:50:59;10.90;99.90
9219;DHT22;4644;48.858;9.184;2023-03-12T14:53:28;10.90;99.90
9219;DHT22;4644;48.858;9.184;2023-03-12T14:56:01;11.00;99.90
9219;DHT22;4644;48.858;9.184;2023-03-12T14:58:29;11.10;99.90
9219;DHT22;4644;48.858;9.184;2023-03-12T15:00:59;11.20;99.90
9219;DHT22;4644;48.858;9.184;2023-03-12T15:03:27;11.30;99.90
9219;DHT22;4644;48.858;9.184;2023-03-12T15:05:55;11.30;99.90
9219;DHT22;4644;48.858;9.184;2023-03-12T15:08:25;11.40;99.90
9219;DHT22;4644;48.858;9.184;2023-03-12T15:10:54;11.40;99.90
9219;DHT22;4644;48.858;9.184;2023-03-12T15:13:22;11.50;99.90
9219;DHT22;4644;48.858;9.184;2023-03-12T15:15:52;11.60;99.90
9219;DHT22;4644;48.858;9.184;2023-03-12T15:18:23;11.60;99.90
9219;DHT22;4644;48.858;9.184;2023-03-12T15:20:52;11.70;99.90
9219;DHT22;4644;48.858;9.184;2023-03-12T15:23:21;11.70;99.90
9219;DHT22;4644;48.858;9.184;2023-03-12T15:26:08;11.70;99.90
9219;DHT22;4644;48.858;9.184;2023-03-12T15:28:35;11.70;99.90
9219;DHT22;4644;48.858;9.184;2023-03-12T15:31:08;11.60;99.90
9219;DHT22;4644;48.858;9.184;2023-03-12T15:33:36;11.70;99.90
9219;DHT22;4644;48.858;9.184;2023-03-12T15:36:13;11.60;99.90
9219;DHT22;4644;48.858;9.184;2023-03-12T15:38:45;11.70;99.90
9219;DHT22;4644;48.858;9.184;2023-03-12T15:41:19;11.70;99.90
9219;DHT22;4644;48.858;9.184;2023-03-12T15:43:51;11.60;99.90
9219;DHT22;4644;48.858;9.184;2023-03-12T15:46:19;11.60;99.90
9219;DHT22;4644;48.858;9.184;2023-03-12T15:48:49;11.60;99.90
9219;DHT22;4644;48.858;9.184;2023-03-12T15:51:28;11.60;99.90
9219;DHT22;4644;48.858;9.184;2023-03-12T15:53:59;11.60;99.90
9219;DHT22;4644;48.858;9.184;2023-03-12T15:56:30;11.50;99.90
9219;DHT22;4644;48.858;9.184;2023-03-12T15:58:59;11.40;99.90
9219;DHT22;4644;48.858;9.184;2023-03-12T16:01:26;11.40;99.90
9219;DHT22;4644;48.858;9.184;2023-03-12T16:03:54;11.40;99.90
9219;DHT22;4644;48.858;9.184;2023-03-12T16:06:24;11.40;99.90
9219;DHT22;4644;48.858;9.184;2023-03-12T16:08:53;11.50;99.90
9219;DHT22;4644;48.858;9.184;2023-03-12T16:11:23;11.50;99.90
9219;DHT22;4644;48.858;9.184;2023-03-12T16:13:58;11.40;99.90
9219;DHT22;4644;48.858;9.184;2023-03-12T16:16:28;11.50;99.90
9219;DHT22;4644;48.858;9.184;2023-03-12T16:18:55;11.40;99.90
9219;DHT22;4644;48.858;9.184;2023-03-12T16:21:22;11.40;99.90
9219;DHT22;4644;48.858;9.184;2023-03-12T16:23:49;11.30;99.90
9219;DHT22;4644;48.858;9.184;2023-03-12T16:26:16;11.30;99.90
9219;DHT22;4644;48.858;9.184;2023-03-12T16:28:43;11.30;99.90
9219;DHT22;4644;48.858;9.184;2023-03-12T16:31:13;11.20;99.90
9219;DHT22;4644;48.858;9.184;2023-03-12T16:33:41;11.30;99.90
9219;DHT22;4644;48.858;9.184;2023-03-12T16:36:13;11.30;99.90
9219;DHT22;4644;48.858;9.184;2023-03-12T16:38:41;11.20;99.90